PWSweather.com
Personal Weather Stations
Station Observations
WISCHPK61
Green Bay Schmitt Park, Green Bay, WI 54311

Green Bay Schmitt ParkGreen Bay, WI 54311

Lat: 44.514277, Lon: -87.935067

Elevation: 735

Station Type: Acu Rite Pro Weather Center model 02032C

http://greenbayweathercam.com

High Low Average
Temperature 27.5°F-2.5°C 5.4°F-14.8°C 14.7°F-9.6°C
Dew Point 20.5°F-6.4°C 5.0°F-15.0°C 13.1°F-10.5°C
Winds Calm Calm Calm Calm Calm SWCalm SW
Wind Gusts -- -- --
Humidity 99% 69% 94%
Pressure 29.78 in1008.5 mb 29.63 in1003.4 mb -
Precipitation 0.00 in0.0 mm - -
Hour Temp Dew Point Humidity Winds Wind Gusts Pressure Precip Precip Rate Daily Precip Total
12:00 AM 15.6°F-9.1°C 15.4°F-9.2°C 99% Calm Calm -- 29.63 in1003.4 mb - 0.00 in0.0 mm 0.00 in0.0 mm
12:15 AM 15.4°F-9.2°C 15.2°F-9.3°C 99% Calm Calm -- 29.63 in1003.4 mb - 0.00 in0.0 mm 0.00 in0.0 mm
12:30 AM 15.4°F-9.2°C 15.2°F-9.3°C 99% Calm Calm -- 29.62 in1003.0 mb - 0.00 in0.0 mm 0.00 in0.0 mm
12:45 AM 15.4°F-9.2°C 15.2°F-9.3°C 99% Calm Calm -- 29.62 in1003.0 mb - 0.00 in0.0 mm 0.00 in0.0 mm
01:00 AM 15.3°F-9.3°C 15.1°F-9.4°C 99% Calm Calm -- 29.63 in1003.4 mb - 0.00 in0.0 mm 0.00 in0.0 mm
01:15 AM 14.9°F-9.5°C 14.7°F-9.6°C 99% Calm Calm -- 29.63 in1003.4 mb - 0.00 in0.0 mm 0.00 in0.0 mm
01:30 AM 14.7°F-9.6°C 14.5°F-9.7°C 99% Calm Calm -- 29.63 in1003.4 mb - 0.00 in0.0 mm 0.00 in0.0 mm
01:45 AM 14.7°F-9.6°C 14.5°F-9.7°C 99% Calm Calm -- 29.63 in1003.4 mb - 0.00 in0.0 mm 0.00 in0.0 mm
02:00 AM 15.1°F-9.4°C 14.8°F-9.6°C 99% Calm Calm -- 29.63 in1003.4 mb - 0.00 in0.0 mm 0.00 in0.0 mm
02:15 AM 15.4°F-9.2°C 15.2°F-9.3°C 99% Calm Calm -- 29.63 in1003.4 mb - 0.00 in0.0 mm 0.00 in0.0 mm
02:30 AM 15.8°F-9.0°C 15.6°F-9.1°C 99% Calm Calm -- 29.64 in1003.7 mb - 0.00 in0.0 mm 0.00 in0.0 mm
02:45 AM 15.8°F-9.0°C 15.6°F-9.1°C 99% Calm Calm -- 29.64 in1003.7 mb - 0.00 in0.0 mm 0.00 in0.0 mm
03:00 AM 15.4°F-9.2°C 15.2°F-9.3°C 99% Calm Calm -- 29.65 in1004.1 mb - 0.00 in0.0 mm 0.00 in0.0 mm
03:15 AM 15.1°F-9.4°C 14.9°F-9.5°C 99% Calm Calm -- 29.66 in1004.4 mb - 0.00 in0.0 mm 0.00 in0.0 mm
03:30 AM 14.9°F-9.5°C 14.7°F-9.6°C 99% Calm Calm -- 29.66 in1004.4 mb - 0.00 in0.0 mm 0.00 in0.0 mm
03:45 AM 14.7°F-9.6°C 14.5°F-9.7°C 99% Calm Calm -- 29.66 in1004.4 mb - 0.00 in0.0 mm 0.00 in0.0 mm
04:00 AM 14.7°F-9.6°C 14.5°F-9.7°C 99% Calm Calm -- 29.67 in1004.7 mb - 0.00 in0.0 mm 0.00 in0.0 mm
04:15 AM 14.5°F-9.7°C 14.3°F-9.8°C 99% Calm Calm -- 29.67 in1004.7 mb - 0.00 in0.0 mm 0.00 in0.0 mm
04:30 AM 14.4°F-9.8°C 14.2°F-9.9°C 99% Calm Calm -- 29.68 in1005.1 mb - 0.00 in0.0 mm 0.00 in0.0 mm
04:45 AM 14.0°F-10.0°C 13.8°F-10.1°C 99% Calm Calm -- 29.68 in1005.1 mb - 0.00 in0.0 mm 0.00 in0.0 mm
05:00 AM 13.6°F-10.2°C 13.4°F-10.3°C 99% Calm Calm -- 29.68 in1005.1 mb - 0.00 in0.0 mm 0.00 in0.0 mm
05:15 AM 13.3°F-10.4°C 13.1°F-10.5°C 99% Calm Calm -- 29.69 in1005.4 mb - 0.00 in0.0 mm 0.00 in0.0 mm
05:30 AM 12.7°F-10.7°C 12.5°F-10.8°C 99% Calm Calm -- 29.70 in1005.8 mb - 0.00 in0.0 mm 0.00 in0.0 mm
05:45 AM 12.6°F-10.8°C 12.4°F-10.9°C 99% Calm Calm -- 29.71 in1006.1 mb - 0.00 in0.0 mm 0.00 in0.0 mm
06:00 AM 12.4°F-10.9°C 12.2°F-11.0°C 99% Calm Calm -- 29.71 in1006.1 mb - 0.00 in0.0 mm 0.00 in0.0 mm
06:15 AM 11.8°F-11.2°C 11.6°F-11.3°C 99% Calm Calm -- 29.71 in1006.1 mb - 0.00 in0.0 mm 0.00 in0.0 mm
06:30 AM 11.3°F-11.5°C 11.1°F-11.6°C 99% Calm Calm -- 29.71 in1006.1 mb - 0.00 in0.0 mm 0.00 in0.0 mm
06:45 AM 10.4°F-12.0°C 9.9°F-12.3°C 98% Calm Calm -- 29.72 in1006.4 mb - 0.00 in0.0 mm 0.00 in0.0 mm
07:00 AM 9.2°F-12.7°C 8.8°F-12.9°C 98% Calm Calm -- 29.72 in1006.4 mb - 0.00 in0.0 mm 0.00 in0.0 mm
07:15 AM 8.1°F-13.3°C 7.7°F-13.5°C 98% Calm Calm -- 29.73 in1006.8 mb - 0.00 in0.0 mm 0.00 in0.0 mm
07:30 AM 7.2°F-13.8°C 6.8°F-14.0°C 98% Calm Calm -- 29.73 in1006.8 mb - 0.00 in0.0 mm 0.00 in0.0 mm
07:45 AM 6.4°F-14.2°C 6.0°F-14.4°C 98% Calm Calm -- 29.73 in1006.8 mb - 0.00 in0.0 mm 0.00 in0.0 mm
08:00 AM 5.9°F-14.5°C 5.5°F-14.7°C 98% Calm Calm -- 29.73 in1006.8 mb - 0.00 in0.0 mm 0.00 in0.0 mm
08:15 AM 5.5°F-14.7°C 5.1°F-14.9°C 98% Calm Calm -- 29.74 in1007.1 mb - 0.00 in0.0 mm 0.00 in0.0 mm
08:30 AM 5.4°F-14.8°C 5.0°F-15.0°C 98% Calm Calm -- 29.74 in1007.1 mb - 0.00 in0.0 mm 0.00 in0.0 mm
08:45 AM 5.4°F-14.8°C 5.2°F-14.9°C 99% Calm Calm -- 29.74 in1007.1 mb - 0.00 in0.0 mm 0.00 in0.0 mm
09:00 AM 5.4°F-14.8°C 5.0°F-15.0°C 98% Calm Calm -- 29.74 in1007.1 mb - 0.00 in0.0 mm 0.00 in0.0 mm
09:15 AM 5.7°F-14.6°C 5.3°F-14.8°C 98% Calm Calm -- 29.74 in1007.1 mb - 0.00 in0.0 mm 0.00 in0.0 mm
09:30 AM 6.1°F-14.4°C 5.7°F-14.6°C 98% Calm Calm -- 29.75 in1007.5 mb - 0.00 in0.0 mm 0.00 in0.0 mm
09:45 AM 7.0°F-13.9°C 6.8°F-14.0°C 99% Calm Calm -- 29.75 in1007.5 mb - 0.00 in0.0 mm 0.00 in0.0 mm
10:00 AM 8.4°F-13.1°C 8.2°F-13.2°C 99% Calm Calm -- 29.76 in1007.8 mb - 0.00 in0.0 mm 0.00 in0.0 mm
10:15 AM 9.5°F-12.5°C 9.3°F-12.6°C 99% Calm Calm -- 29.77 in1008.1 mb - 0.00 in0.0 mm 0.00 in0.0 mm
10:30 AM 10.6°F-11.9°C 10.4°F-12.0°C 99% Calm Calm -- 29.77 in1008.1 mb - 0.00 in0.0 mm 0.00 in0.0 mm
10:45 AM 11.9°F-11.2°C 11.6°F-11.3°C 99% Calm Calm -- 29.78 in1008.5 mb - 0.00 in0.0 mm 0.00 in0.0 mm
11:00 AM 13.1°F-10.5°C 12.6°F-10.8°C 98% Calm Calm -- 29.78 in1008.5 mb - 0.00 in0.0 mm 0.00 in0.0 mm
11:15 AM 14.5°F-9.7°C 13.3°F-10.4°C 95% Calm Calm -- 29.78 in1008.5 mb - 0.00 in0.0 mm 0.00 in0.0 mm
11:30 AM 15.4°F-9.2°C 14.0°F-10.0°C 94% Calm Calm -- 29.78 in1008.5 mb - 0.00 in0.0 mm 0.00 in0.0 mm
11:45 AM 15.6°F-9.1°C 14.2°F-9.9°C 94% Calm Calm -- 29.77 in1008.1 mb - 0.00 in0.0 mm 0.00 in0.0 mm
12:00 PM 15.4°F-9.2°C 14.2°F-9.9°C 95% Calm Calm -- 29.77 in1008.1 mb - 0.00 in0.0 mm 0.00 in0.0 mm
12:15 PM 17.0°F-8.3°C 15.5°F-9.2°C 94% Calm Calm -- 29.77 in1008.1 mb - 0.00 in0.0 mm 0.00 in0.0 mm
12:30 PM 18.5°F-7.5°C 16.3°F-8.7°C 91% Calm Calm -- 29.77 in1008.1 mb - 0.00 in0.0 mm 0.00 in0.0 mm
12:45 PM 19.2°F-7.1°C 16.7°F-8.5°C 90% Calm Calm -- 29.76 in1007.8 mb - 0.00 in0.0 mm 0.00 in0.0 mm
01:00 PM 20.7°F-6.3°C 17.7°F-7.9°C 88% Calm Calm -- 29.76 in1007.8 mb - 0.00 in0.0 mm 0.00 in0.0 mm
01:15 PM 23.1°F-4.9°C 19.5°F-6.9°C 86% Calm Calm -- 29.75 in1007.5 mb - 0.00 in0.0 mm 0.00 in0.0 mm
01:30 PM 25.8°F-3.4°C 20.5°F-6.4°C 80% Calm Calm -- 29.75 in1007.5 mb - 0.00 in0.0 mm 0.00 in0.0 mm
01:45 PM 26.9°F-2.8°C 19.4°F-7.0°C 73% Calm Calm -- 29.74 in1007.1 mb - 0.00 in0.0 mm 0.00 in0.0 mm
02:00 PM 27.5°F-2.5°C 19.0°F-7.2°C 70% Calm Calm -- 29.74 in1007.1 mb - 0.00 in0.0 mm 0.00 in0.0 mm
02:15 PM 27.2°F-2.7°C 18.3°F-7.6°C 69% Calm Calm -- 29.74 in1007.1 mb - 0.00 in0.0 mm 0.00 in0.0 mm
02:30 PM 26.1°F-3.3°C 17.9°F-7.8°C 71% Calm Calm -- 29.74 in1007.1 mb - 0.00 in0.0 mm 0.00 in0.0 mm
02:45 PM 24.9°F-3.9°C 17.8°F-7.9°C 74% Calm Calm -- 29.74 in1007.1 mb - 0.00 in0.0 mm 0.00 in0.0 mm
03:00 PM 24.9°F-3.9°C 17.4°F-8.1°C 73% Calm Calm -- 29.74 in1007.1 mb - 0.00 in0.0 mm 0.00 in0.0 mm
03:15 PM 23.5°F-4.7°C 17.0°F-8.3°C 76% Calm Calm -- 29.74 in1007.1 mb - 0.00 in0.0 mm 0.00 in0.0 mm
03:30 PM 23.5°F-4.7°C 17.3°F-8.2°C 77% Calm Calm -- 29.74 in1007.1 mb - 0.00 in0.0 mm 0.00 in0.0 mm
03:45 PM 22.8°F-5.1°C 16.7°F-8.5°C 77% Calm Calm -- 29.74 in1007.1 mb - 0.00 in0.0 mm 0.00 in0.0 mm
04:00 PM 21.4°F-5.9°C 16.5°F-8.6°C 81% Calm Calm -- 29.74 in1007.1 mb - 0.00 in0.0 mm 0.00 in0.0 mm
04:15 PM 21.0°F-6.1°C 16.4°F-8.7°C 82% Calm Calm -- 29.74 in1007.1 mb - 0.00 in0.0 mm 0.00 in0.0 mm
04:30 PM 21.4°F-5.9°C 17.0°F-8.3°C 83% Calm Calm -- 29.74 in1007.1 mb - 0.00 in0.0 mm 0.00 in0.0 mm
04:45 PM 21.2°F-6.0°C 17.1°F-8.3°C 84% Calm Calm -- 29.74 in1007.1 mb - 0.00 in0.0 mm 0.00 in0.0 mm
05:00 PM 20.8°F-6.2°C 16.7°F-8.5°C 84% Calm Calm -- 29.75 in1007.5 mb - 0.00 in0.0 mm 0.00 in0.0 mm
05:15 PM 20.7°F-6.3°C 17.2°F-8.2°C 86% Calm Calm -- 29.75 in1007.5 mb - 0.00 in0.0 mm 0.00 in0.0 mm
05:30 PM 20.3°F-6.5°C 17.0°F-8.3°C 87% Calm Calm -- 29.75 in1007.5 mb - 0.00 in0.0 mm 0.00 in0.0 mm
05:45 PM 20.1°F-6.6°C 17.4°F-8.1°C 89% Calm Calm -- 29.75 in1007.5 mb - 0.00 in0.0 mm 0.00 in0.0 mm
06:00 PM 19.0°F-7.2°C 16.8°F-8.4°C 91% Calm Calm -- 29.75 in1007.5 mb - 0.00 in0.0 mm 0.00 in0.0 mm
06:15 PM 17.8°F-7.9°C 16.1°F-8.8°C 93% Calm Calm -- 29.75 in1007.5 mb - 0.00 in0.0 mm 0.00 in0.0 mm
06:30 PM 16.9°F-8.4°C 16.0°F-8.9°C 96% Calm Calm -- 29.75 in1007.5 mb - 0.00 in0.0 mm 0.00 in0.0 mm
06:45 PM 16.2°F-8.8°C 15.5°F-9.2°C 97% Calm Calm -- 29.75 in1007.5 mb - 0.00 in0.0 mm 0.00 in0.0 mm
07:00 PM 16.0°F-8.9°C 15.1°F-9.4°C 96% Calm Calm -- 29.75 in1007.5 mb - 0.00 in0.0 mm 0.00 in0.0 mm
07:15 PM 16.2°F-8.8°C 15.3°F-9.3°C 96% Calm Calm -- 29.75 in1007.5 mb - 0.00 in0.0 mm 0.00 in0.0 mm
07:30 PM 16.3°F-8.7°C 15.8°F-9.0°C 98% Calm Calm -- 29.76 in1007.8 mb - 0.00 in0.0 mm 0.00 in0.0 mm
07:45 PM 16.0°F-8.9°C 15.5°F-9.2°C 98% Calm Calm -- 29.75 in1007.5 mb - 0.00 in0.0 mm 0.00 in0.0 mm
08:00 PM 14.9°F-9.5°C 14.5°F-9.7°C 98% Calm Calm -- 29.75 in1007.5 mb - 0.00 in0.0 mm 0.00 in0.0 mm
08:15 PM 14.2°F-9.9°C 13.7°F-10.2°C 98% Calm Calm -- 29.75 in1007.5 mb - 0.00 in0.0 mm 0.00 in0.0 mm
08:30 PM 13.5°F-10.3°C 13.3°F-10.4°C 99% Calm Calm -- 29.75 in1007.5 mb - 0.00 in0.0 mm 0.00 in0.0 mm
08:45 PM 12.9°F-10.6°C 12.7°F-10.7°C 99% Calm Calm -- 29.75 in1007.5 mb - 0.00 in0.0 mm 0.00 in0.0 mm
09:00 PM 12.2°F-11.0°C 12.0°F-11.1°C 99% Calm Calm -- 29.75 in1007.5 mb - 0.00 in0.0 mm 0.00 in0.0 mm
09:15 PM 11.7°F-11.3°C 11.5°F-11.4°C 99% Calm Calm -- 29.74 in1007.1 mb - 0.00 in0.0 mm 0.00 in0.0 mm
09:30 PM 11.1°F-11.6°C 10.9°F-11.7°C 99% Calm Calm -- 29.74 in1007.1 mb - 0.00 in0.0 mm 0.00 in0.0 mm
09:45 PM 10.6°F-11.9°C 10.4°F-12.0°C 99% Calm Calm -- 29.74 in1007.1 mb - 0.00 in0.0 mm 0.00 in0.0 mm
10:00 PM 10.3°F-12.1°C 10.0°F-12.2°C 99% Calm Calm -- 29.74 in1007.1 mb - 0.00 in0.0 mm 0.00 in0.0 mm
10:15 PM 10.0°F-12.2°C 9.7°F-12.4°C 99% Calm Calm -- 29.74 in1007.1 mb - 0.00 in0.0 mm 0.00 in0.0 mm
10:30 PM 9.9°F-12.3°C 9.7°F-12.4°C 99% Calm Calm -- 29.74 in1007.1 mb - 0.00 in0.0 mm 0.00 in0.0 mm
10:45 PM 10.6°F-11.9°C 10.4°F-12.0°C 99% Calm Calm -- 29.73 in1006.8 mb - 0.00 in0.0 mm 0.00 in0.0 mm
11:00 PM 11.0°F-11.7°C 10.7°F-11.8°C 99% Calm Calm -- 29.73 in1006.8 mb - 0.00 in0.0 mm 0.00 in0.0 mm
11:15 PM 11.3°F-11.5°C 11.1°F-11.6°C 99% Calm Calm -- 29.74 in1007.1 mb - 0.00 in0.0 mm 0.00 in0.0 mm
11:30 PM 11.1°F-11.6°C 10.9°F-11.7°C 99% Calm Calm -- 29.73 in1006.8 mb - 0.00 in0.0 mm 0.00 in0.0 mm
11:45 PM 10.6°F-11.9°C 10.4°F-12.0°C 99% Calm Calm -- 29.73 in1006.8 mb - 0.00 in0.0 mm 0.00 in0.0 mm